createdAt,value
2022-09-06T00:01:12.716Z,14.18
2022-09-06T00:03:41.553Z,14.19
2022-09-06T00:06:13.031Z,14.19
2022-09-06T00:08:43.035Z,14.19
2022-09-06T00:11:11.171Z,14.19
2022-09-06T00:13:39.427Z,14.17
2022-09-06T00:16:14.344Z,14.16
2022-09-06T00:18:43.701Z,14.15
2022-09-06T00:21:21.445Z,14.14
2022-09-06T00:23:51.782Z,14.11
2022-09-06T00:26:21.615Z,14.09
2022-09-06T00:28:50.514Z,14.06
2022-09-06T00:31:24.602Z,14.03
2022-09-06T00:33:53.726Z,14.00
2022-09-06T00:36:22.928Z,13.96
2022-09-06T00:38:51.762Z,13.88
2022-09-06T00:41:20.050Z,13.76
2022-09-06T00:43:48.503Z,13.68
2022-09-06T00:46:23.817Z,13.63
2022-09-06T00:49:00.586Z,13.56
2022-09-06T00:51:30.791Z,13.48
2022-09-06T00:54:02.435Z,13.41
2022-09-06T00:56:32.241Z,13.36
2022-09-06T00:59:01.650Z,13.31
2022-09-06T01:01:30.081Z,13.27
2022-09-06T01:03:59.239Z,13.23
2022-09-06T01:06:39.017Z,13.18
2022-09-06T01:09:27.468Z,13.14
2022-09-06T01:12:27.626Z,13.08
2022-09-06T01:15:33.272Z,13.01
2022-09-06T01:18:37.323Z,12.94
2022-09-06T01:21:24.306Z,12.88
2022-09-06T01:24:04.558Z,12.82
2022-09-06T01:27:10.353Z,12.79
2022-09-06T01:29:54.813Z,12.73
2022-09-06T01:32:32.983Z,12.66
2022-09-06T01:35:32.794Z,12.62
2022-09-06T01:38:02.105Z,12.57
2022-09-06T01:40:30.491Z,12.54
2022-09-06T01:42:58.815Z,12.50
2022-09-06T01:45:39.507Z,12.47
2022-09-06T01:48:39.959Z,12.45
2022-09-06T01:51:32.735Z,12.44
2022-09-06T01:54:34.010Z,12.47
2022-09-06T01:57:32.702Z,12.49
2022-09-06T02:00:09.416Z,12.53
2022-09-06T02:03:09.518Z,12.57
2022-09-06T02:05:51.110Z,12.59
2022-09-06T02:08:42.635Z,12.61
2022-09-06T02:11:14.443Z,12.62
2022-09-06T02:13:52.942Z,12.62
2022-09-06T02:16:26.116Z,12.60
2022-09-06T02:19:03.649Z,12.58
2022-09-06T02:21:37.024Z,12.57
2022-09-06T02:24:10.354Z,12.55
2022-09-06T02:26:43.194Z,12.53
2022-09-06T02:29:11.657Z,12.51
2022-09-06T02:31:43.822Z,12.48
2022-09-06T02:34:16.262Z,12.45
2022-09-06T02:36:44.945Z,12.42
2022-09-06T02:39:13.922Z,12.38
2022-09-06T02:41:45.540Z,12.35
2022-09-06T02:44:14.261Z,12.31
2022-09-06T02:46:42.359Z,12.28
2022-09-06T02:49:10.714Z,12.24
2022-09-06T02:51:39.760Z,12.22
2022-09-06T02:54:09.063Z,12.21
2022-09-06T02:56:37.439Z,12.19
2022-09-06T02:59:06.936Z,12.17
2022-09-06T03:01:35.537Z,12.14
2022-09-06T03:04:04.028Z,12.10
2022-09-06T03:06:33.049Z,12.11
2022-09-06T03:09:01.485Z,12.12
2022-09-06T03:11:29.790Z,12.13
2022-09-06T03:13:58.361Z,12.17
2022-09-06T03:16:27.021Z,12.20
2022-09-06T03:18:55.459Z,12.21
2022-09-06T03:21:23.759Z,12.22
2022-09-06T03:23:52.682Z,12.22
2022-09-06T03:26:21.035Z,12.22
2022-09-06T03:28:50.448Z,12.22
2022-09-06T03:31:18.903Z,12.22
2022-09-06T03:33:47.223Z,12.20
2022-09-06T03:36:16.111Z,12.19
2022-09-06T03:38:45.518Z,12.18
2022-09-06T03:41:13.754Z,12.16
2022-09-06T03:43:41.969Z,12.16
2022-09-06T03:46:10.314Z,12.15
2022-09-06T03:48:38.663Z,12.14
2022-09-06T03:51:07.367Z,12.10
2022-09-06T03:53:36.684Z,12.06
2022-09-06T03:56:04.827Z,12.03
2022-09-06T03:58:32.975Z,11.99
2022-09-06T04:01:08.471Z,11.97
2022-09-06T04:03:38.314Z,11.95
2022-09-06T04:06:07.822Z,11.90
2022-09-06T04:08:37.439Z,11.87
2022-09-06T04:11:06.326Z,11.83
2022-09-06T04:13:35.115Z,11.81
2022-09-06T04:16:05.024Z,11.80
2022-09-06T04:18:33.663Z,11.84
2022-09-06T04:21:01.735Z,11.98
2022-09-06T04:23:30.564Z,12.17
2022-09-06T04:25:59.749Z,12.38
2022-09-06T04:28:28.958Z,12.58
2022-09-06T04:31:04.959Z,12.83
2022-09-06T04:33:35.495Z,13.07
2022-09-06T04:36:07.215Z,13.28
2022-09-06T04:38:40.367Z,13.52
2022-09-06T04:41:10.460Z,13.76
2022-09-06T04:43:39.055Z,14.07
2022-09-06T04:46:30.215Z,14.33
2022-09-06T04:48:59.213Z,14.57
2022-09-06T04:51:27.846Z,14.74
2022-09-06T04:53:56.224Z,14.94
2022-09-06T04:56:26.230Z,15.11
2022-09-06T04:58:55.645Z,15.35
2022-09-06T05:01:26.494Z,15.52
2022-09-06T05:03:56.882Z,15.54
2022-09-06T05:06:25.828Z,15.60
2022-09-06T05:08:53.918Z,15.59
2022-09-06T05:11:22.543Z,15.47
2022-09-06T05:13:50.847Z,15.48
2022-09-06T05:16:19.170Z,15.54
2022-09-06T05:18:47.694Z,15.63
2022-09-06T05:21:16.361Z,15.76
2022-09-06T05:23:44.804Z,15.97
2022-09-06T05:26:12.995Z,16.04
2022-09-06T05:28:41.091Z,16.17
2022-09-06T05:31:14.410Z,16.25
2022-09-06T05:33:42.708Z,16.34
2022-09-06T05:36:11.267Z,16.57
2022-09-06T05:38:40.080Z,16.88
2022-09-06T05:41:08.647Z,17.15
2022-09-06T05:43:36.898Z,17.47
2022-09-06T05:46:05.708Z,17.43
2022-09-06T05:48:37.071Z,17.03
2022-09-06T05:51:13.946Z,16.67
2022-09-06T05:53:46.026Z,16.31
2022-09-06T05:56:14.916Z,15.93
2022-09-06T05:58:43.735Z,15.63
2022-09-06T06:01:26.919Z,15.47
2022-09-06T06:03:59.211Z,15.29
2022-09-06T06:06:29.681Z,15.23
2022-09-06T06:08:58.363Z,15.13
2022-09-06T06:11:27.645Z,15.10
2022-09-06T06:13:56.062Z,15.17
2022-09-06T06:16:25.296Z,15.20
2022-09-06T06:18:53.524Z,15.20
2022-09-06T06:21:24.428Z,15.08
2022-09-06T06:23:55.642Z,15.13
2022-09-06T06:26:24.136Z,15.16
2022-09-06T06:28:53.578Z,15.19
2022-09-06T06:31:22.850Z,15.24
2022-09-06T06:33:51.308Z,15.23
2022-09-06T06:36:22.426Z,15.14
2022-09-06T06:38:53.346Z,15.06
2022-09-06T06:41:26.820Z,15.10
2022-09-06T06:43:57.154Z,15.35
2022-09-06T06:46:28.855Z,15.44
2022-09-06T06:48:58.016Z,15.45
2022-09-06T06:51:28.815Z,15.54
2022-09-06T06:53:57.107Z,15.55
2022-09-06T06:56:30.052Z,15.60
2022-09-06T06:59:00.942Z,15.74
2022-09-06T07:01:31.155Z,15.80
2022-09-06T07:03:59.529Z,15.69
2022-09-06T07:09:18.691Z,15.92
2022-09-06T07:11:50.133Z,16.10
2022-09-06T07:14:19.161Z,16.00
2022-09-06T07:16:48.045Z,16.02
2022-09-06T07:22:05.806Z,16.24
2022-09-06T07:24:34.605Z,16.25
2022-09-06T07:29:50.656Z,16.57
2022-09-06T07:32:18.746Z,17.12
2022-09-06T07:34:47.038Z,17.34
2022-09-06T07:37:15.828Z,17.49
2022-09-06T07:39:44.430Z,17.92
2022-09-06T07:42:12.492Z,18.33
2022-09-06T07:44:41.339Z,18.62
2022-09-06T07:55:35.016Z,20.13
2022-09-06T07:58:03.281Z,20.45
2022-09-06T08:00:32.241Z,20.77
2022-09-06T08:03:00.334Z,20.90
2022-09-06T08:11:07.729Z,21.81
2022-09-06T08:13:37.396Z,21.88
2022-09-06T08:16:08.391Z,21.58
2022-09-06T08:18:37.673Z,21.64
2022-09-06T08:21:14.347Z,21.66
2022-09-06T08:23:48.517Z,21.73
2022-09-06T08:26:18.155Z,21.74
2022-09-06T08:28:47.137Z,21.94
2022-09-06T08:31:17.470Z,21.68
2022-09-06T08:33:47.889Z,21.80
2022-09-06T08:36:16.337Z,22.30
2022-09-06T08:38:45.947Z,22.55
2022-09-06T08:41:41.574Z,22.53
2022-09-06T08:47:17.112Z,22.11
2022-09-06T08:49:47.819Z,21.64
2022-09-06T08:52:54.370Z,21.19
2022-09-06T08:55:26.147Z,21.04
2022-09-06T08:58:15.314Z,21.18
2022-09-06T09:00:52.565Z,21.20
2022-09-06T09:03:25.779Z,21.67
2022-09-06T09:05:54.450Z,22.32
2022-09-06T09:08:34.739Z,22.63
2022-09-06T09:11:18.338Z,22.81
2022-09-06T09:14:24.325Z,23.23
2022-09-06T09:16:56.638Z,23.87
2022-09-06T09:19:25.183Z,24.10
2022-09-06T09:21:53.327Z,23.88
2022-09-06T09:24:21.526Z,23.84
2022-09-06T09:26:52.619Z,23.96
2022-09-06T09:29:26.807Z,24.03
2022-09-06T09:31:57.195Z,24.11
2022-09-06T09:34:35.014Z,24.12
2022-09-06T09:40:35.075Z,23.60
2022-09-06T09:43:40.920Z,23.47
2022-09-06T09:46:33.230Z,23.36
2022-09-06T09:49:07.951Z,23.25
2022-09-06T09:51:42.558Z,23.13
2022-09-06T09:54:30.175Z,23.14
2022-09-06T09:56:59.300Z,23.14
2022-09-06T09:59:42.867Z,23.21
2022-09-06T10:02:30.565Z,23.17
2022-09-06T10:05:04.323Z,23.21
2022-09-06T10:07:34.270Z,23.30
2022-09-06T10:10:11.765Z,23.28
2022-09-06T10:12:43.115Z,23.23
2022-09-06T10:15:32.639Z,23.16
2022-09-06T10:18:01.401Z,22.91
2022-09-06T10:20:41.212Z,22.84
2022-09-06T10:23:16.411Z,22.90
2022-09-06T10:26:03.451Z,22.98
2022-09-06T10:28:42.456Z,23.03
2022-09-06T10:31:28.375Z,23.14
2022-09-06T10:34:09.158Z,23.10
2022-09-06T10:36:40.863Z,23.06
2022-09-06T10:39:32.252Z,22.94
2022-09-06T10:42:12.746Z,22.58
2022-09-06T10:45:03.537Z,22.44
2022-09-06T10:47:44.787Z,22.29
2022-09-06T10:50:14.692Z,22.24
2022-09-06T10:52:47.490Z,22.29
2022-09-06T10:55:18.967Z,22.30
2022-09-06T11:00:49.380Z,22.22
2022-09-06T11:06:28.146Z,22.42
2022-09-06T11:09:19.102Z,22.62
2022-09-06T11:12:18.992Z,22.72
2022-09-06T11:14:47.963Z,22.81
2022-09-06T11:17:41.232Z,22.97
2022-09-06T11:20:18.223Z,23.10
2022-09-06T11:22:50.531Z,23.19
2022-09-06T11:25:18.708Z,23.30
2022-09-06T11:27:57.768Z,23.33
2022-09-06T11:30:30.004Z,23.36
2022-09-06T11:33:12.117Z,23.34
2022-09-06T11:35:41.544Z,23.20
2022-09-06T11:38:16.399Z,23.13
2022-09-06T11:41:07.184Z,23.10
2022-09-06T11:43:42.949Z,23.25
2022-09-06T11:46:33.067Z,23.62
2022-09-06T11:49:05.046Z,23.79
2022-09-06T11:51:40.339Z,24.00
2022-09-06T11:54:15.151Z,24.31
2022-09-06T11:56:53.262Z,24.55
2022-09-06T11:59:34.478Z,24.54
2022-09-06T12:02:27.014Z,24.59
2022-09-06T12:05:00.507Z,24.43
2022-09-06T12:07:30.938Z,24.26
2022-09-06T12:10:31.242Z,24.16
2022-09-06T12:12:59.646Z,24.21
2022-09-06T12:15:31.248Z,24.64
2022-09-06T12:18:00.582Z,24.85
2022-09-06T12:21:04.656Z,24.68
2022-09-06T12:23:35.415Z,24.29
2022-09-06T12:26:08.343Z,24.03
2022-09-06T12:28:52.868Z,24.12
2022-09-06T12:31:39.943Z,24.20
2022-09-06T12:34:19.678Z,24.79
2022-09-06T12:36:55.582Z,25.39
2022-09-06T12:39:24.719Z,25.87
2022-09-06T12:42:00.580Z,26.05
2022-09-06T12:44:35.802Z,26.40
2022-09-06T12:47:11.631Z,26.60
2022-09-06T12:49:40.088Z,26.85
2022-09-06T12:52:19.651Z,26.93
2022-09-06T12:54:50.333Z,26.90
2022-09-06T12:57:24.295Z,27.31
2022-09-06T12:59:55.640Z,27.51
2022-09-06T13:03:08.938Z,27.41
2022-09-06T13:05:42.771Z,27.35
2022-09-06T13:08:23.120Z,27.62
2022-09-06T13:10:51.681Z,27.74
2022-09-06T13:13:24.883Z,27.73
2022-09-06T13:15:54.023Z,27.87
2022-09-06T13:18:35.674Z,27.86
2022-09-06T13:21:08.674Z,27.69
2022-09-06T13:23:44.216Z,27.46
2022-09-06T13:26:12.503Z,27.58
2022-09-06T13:28:40.976Z,27.67
2022-09-06T13:31:29.628Z,27.52
2022-09-06T13:34:00.001Z,27.50
2022-09-06T13:36:32.777Z,27.36
2022-09-06T13:39:03.861Z,27.21
2022-09-06T13:41:39.170Z,27.41
2022-09-06T13:44:16.660Z,27.57
2022-09-06T13:46:45.073Z,27.45
2022-09-06T13:49:13.887Z,27.30
2022-09-06T13:51:43.563Z,27.05
2022-09-06T13:54:14.427Z,26.73
2022-09-06T13:56:45.096Z,26.49
2022-09-06T13:59:13.504Z,26.27
2022-09-06T14:01:46.002Z,26.30
2022-09-06T14:04:21.707Z,26.42
2022-09-06T14:06:49.859Z,26.61
2022-09-06T14:09:18.096Z,26.75
2022-09-06T14:11:48.344Z,26.83
2022-09-06T14:14:18.099Z,26.78
2022-09-06T14:16:47.811Z,26.58
2022-09-06T14:19:17.812Z,26.28
2022-09-06T14:21:46.891Z,26.35
2022-09-06T14:24:15.440Z,26.51
2022-09-06T14:26:43.954Z,26.64
2022-09-06T14:29:12.216Z,26.65
2022-09-06T14:31:41.275Z,26.58
2022-09-06T14:34:09.615Z,26.59
2022-09-06T14:36:38.178Z,26.47
2022-09-06T14:39:07.040Z,26.42
2022-09-06T14:41:36.151Z,26.57
2022-09-06T14:44:04.921Z,26.57
2022-09-06T14:46:33.189Z,26.57
2022-09-06T14:49:06.489Z,26.66
2022-09-06T14:51:35.882Z,26.60
2022-09-06T14:54:11.328Z,26.29
2022-09-06T14:56:42.138Z,25.98
2022-09-06T14:59:11.352Z,25.95
2022-09-06T15:01:41.896Z,25.92
2022-09-06T15:04:12.122Z,25.76
2022-09-06T15:06:44.477Z,25.57
2022-09-06T15:09:13.433Z,25.23
2022-09-06T15:11:46.244Z,25.02
2022-09-06T15:14:26.719Z,24.79
2022-09-06T15:16:58.272Z,24.55
2022-09-06T15:19:29.071Z,24.26
2022-09-06T15:21:57.627Z,23.99
2022-09-06T15:24:26.351Z,23.70
2022-09-06T15:26:54.832Z,23.51
2022-09-06T15:29:22.993Z,23.37
2022-09-06T15:31:52.171Z,23.32
2022-09-06T15:34:22.070Z,23.31
2022-09-06T15:36:51.630Z,23.30
2022-09-06T15:39:20.110Z,23.24
2022-09-06T15:41:50.475Z,23.18
2022-09-06T15:44:20.801Z,23.14
2022-09-06T15:46:54.666Z,23.10
2022-09-06T15:49:34.797Z,23.09
2022-09-06T15:52:06.149Z,23.07
2022-09-06T15:54:52.798Z,23.01
2022-09-06T15:57:21.013Z,22.84
2022-09-06T15:59:49.593Z,22.66
2022-09-06T16:02:18.137Z,22.51
2022-09-06T16:04:46.635Z,22.37
2022-09-06T16:07:14.903Z,22.21
2022-09-06T16:09:43.451Z,22.06
2022-09-06T16:12:11.947Z,21.93
2022-09-06T16:14:40.249Z,21.82
2022-09-06T16:17:08.367Z,21.69
2022-09-06T16:19:36.554Z,21.56
2022-09-06T16:22:05.173Z,21.46
2022-09-06T16:24:33.596Z,21.33
2022-09-06T16:27:02.937Z,21.20
2022-09-06T16:29:32.587Z,21.07
2022-09-06T16:32:00.845Z,20.91
2022-09-06T16:34:29.483Z,20.76
2022-09-06T16:36:58.046Z,20.62
2022-09-06T16:39:26.393Z,20.49
2022-09-06T16:41:54.794Z,20.38
2022-09-06T16:44:23.043Z,20.30
2022-09-06T16:46:53.082Z,20.20
2022-09-06T16:49:21.176Z,20.08
2022-09-06T16:51:50.713Z,19.96
2022-09-06T16:54:19.737Z,19.86
2022-09-06T16:56:48.318Z,19.77
2022-09-06T16:59:17.492Z,19.71
2022-09-06T17:01:46.337Z,19.63
2022-09-06T17:04:15.508Z,19.56
2022-09-06T17:06:47.080Z,19.48
2022-09-06T17:09:21.179Z,19.43
2022-09-06T17:11:50.524Z,19.37
2022-09-06T17:14:19.084Z,19.31
2022-09-06T17:17:07.256Z,19.25
2022-09-06T17:19:38.090Z,19.16
2022-09-06T17:22:06.470Z,19.08
2022-09-06T17:24:34.719Z,19.01
2022-09-06T17:27:04.216Z,18.95
2022-09-06T17:29:32.958Z,18.87
2022-09-06T17:32:03.922Z,18.79
2022-09-06T17:34:32.293Z,18.69
2022-09-06T17:37:00.904Z,18.59
2022-09-06T17:39:29.143Z,18.51
2022-09-06T17:41:58.257Z,18.43
2022-09-06T17:44:26.987Z,18.35
2022-09-06T17:47:12.615Z,18.25
2022-09-06T17:49:42.879Z,18.13
2022-09-06T17:52:12.070Z,18.03
2022-09-06T17:54:40.708Z,17.91
2022-09-06T17:57:09.537Z,17.82
2022-09-06T17:59:38.639Z,17.73
2022-09-06T18:02:06.772Z,17.63
2022-09-06T18:04:35.356Z,17.56
2022-09-06T18:07:03.551Z,17.47
2022-09-06T18:09:31.994Z,17.37
2022-09-06T18:12:00.417Z,17.28
2022-09-06T18:14:28.846Z,17.21
2022-09-06T18:16:57.657Z,17.16
2022-09-06T18:19:27.707Z,17.12
2022-09-06T18:21:57.409Z,17.09
2022-09-06T18:24:25.890Z,17.05
2022-09-06T18:26:54.457Z,16.99
2022-09-06T18:29:23.068Z,16.94
2022-09-06T18:31:54.303Z,16.90
2022-09-06T18:34:22.631Z,16.85
2022-09-06T18:36:51.405Z,16.79
2022-09-06T18:39:20.615Z,16.73
2022-09-06T18:42:00.869Z,16.66
2022-09-06T18:44:34.283Z,16.60
2022-09-06T18:47:05.774Z,16.54
2022-09-06T18:49:35.007Z,16.48
2022-09-06T18:52:05.464Z,16.41
2022-09-06T18:54:33.759Z,16.35
2022-09-06T18:57:02.021Z,16.30
2022-09-06T18:59:30.347Z,16.25
2022-09-06T19:01:58.891Z,16.21
2022-09-06T19:04:27.314Z,16.17
2022-09-06T19:06:55.692Z,16.13
2022-09-06T19:09:23.985Z,16.08
2022-09-06T19:11:53.422Z,16.12
2022-09-06T19:14:22.205Z,16.21
2022-09-06T19:16:51.868Z,16.30
2022-09-06T19:19:21.934Z,16.38
2022-09-06T19:21:50.864Z,16.43
2022-09-06T19:24:22.844Z,16.48
2022-09-06T19:26:53.042Z,16.55
2022-09-06T19:29:21.542Z,16.60
2022-09-06T19:31:50.106Z,16.63
2022-09-06T19:34:18.764Z,16.66
2022-09-06T19:36:47.209Z,16.65
2022-09-06T19:39:16.731Z,16.63
2022-09-06T19:41:47.684Z,16.60
2022-09-06T19:44:20.397Z,16.58
2022-09-06T19:46:49.212Z,16.56
2022-09-06T19:49:23.444Z,16.56
2022-09-06T19:51:53.178Z,16.57
2022-09-06T19:54:21.631Z,16.56
2022-09-06T19:56:49.750Z,16.53
2022-09-06T19:59:18.160Z,16.49
2022-09-06T20:01:48.639Z,16.39
2022-09-06T20:07:15.809Z,16.18
2022-09-06T20:09:44.127Z,16.13
2022-09-06T20:12:12.303Z,16.10
2022-09-06T20:14:40.730Z,16.03
2022-09-06T20:17:32.187Z,16.03
2022-09-06T20:19:57.262Z,16.00
2022-09-06T20:22:26.238Z,15.97
2022-09-06T20:24:54.944Z,15.96
2022-09-06T20:27:23.759Z,15.95
2022-09-06T20:29:52.147Z,15.94
2022-09-06T20:32:20.539Z,15.94
2022-09-06T20:34:48.824Z,15.93
2022-09-06T20:37:16.990Z,15.90
2022-09-06T20:39:45.303Z,15.87
2022-09-06T20:42:13.839Z,15.84
2022-09-06T20:44:42.307Z,15.81
2022-09-06T20:47:10.672Z,15.77
2022-09-06T20:49:38.786Z,15.74
2022-09-06T20:52:06.994Z,15.70
2022-09-06T20:54:36.978Z,15.68
2022-09-06T20:57:05.195Z,15.65
2022-09-06T20:59:33.460Z,15.60
2022-09-06T21:02:01.797Z,15.52
2022-09-06T21:04:30.831Z,15.44
2022-09-06T21:06:59.226Z,15.33
2022-09-06T21:09:28.097Z,15.26
2022-09-06T21:11:58.638Z,15.20
2022-09-06T21:14:26.750Z,15.17
2022-09-06T21:16:54.795Z,15.16
2022-09-06T21:19:23.732Z,15.15
2022-09-06T21:21:52.083Z,15.13
2022-09-06T21:24:21.943Z,15.11
2022-09-06T21:26:50.210Z,15.10
2022-09-06T21:29:18.430Z,15.09
2022-09-06T21:31:46.605Z,15.07
2022-09-06T21:34:17.105Z,15.06
2022-09-06T21:36:46.097Z,15.05
2022-09-06T21:39:15.031Z,15.04
2022-09-06T21:41:43.874Z,15.03
2022-09-06T21:44:12.908Z,15.02
2022-09-06T21:46:41.746Z,15.03
2022-09-06T21:49:12.228Z,15.04
2022-09-06T21:51:40.887Z,15.05
2022-09-06T21:54:09.457Z,15.07
2022-09-06T21:56:38.920Z,15.12
2022-09-06T21:59:07.950Z,15.17
2022-09-06T22:01:38.292Z,15.22
2022-09-06T22:04:07.051Z,15.27
2022-09-06T22:06:36.361Z,15.31
2022-09-06T22:09:11.062Z,15.36
2022-09-06T22:11:41.757Z,15.41
2022-09-06T22:14:12.551Z,15.46
2022-09-06T22:16:41.780Z,15.48
2022-09-06T22:19:11.600Z,15.51
2022-09-06T22:21:40.204Z,15.53
2022-09-06T22:24:11.347Z,15.54
2022-09-06T22:26:41.083Z,15.50
2022-09-06T22:29:13.769Z,15.47
2022-09-06T22:31:42.040Z,15.45
2022-09-06T22:34:10.806Z,15.44
2022-09-06T22:36:39.258Z,15.43
2022-09-06T22:39:07.391Z,15.43
2022-09-06T22:41:36.690Z,15.44
2022-09-06T22:44:05.886Z,15.43
2022-09-06T22:46:34.353Z,15.42
2022-09-06T22:49:04.258Z,15.40
2022-09-06T22:51:32.949Z,15.41
2022-09-06T22:54:01.521Z,15.38
2022-09-06T22:56:29.571Z,15.36
2022-09-06T22:58:59.831Z,15.35
2022-09-06T23:01:28.360Z,15.33
2022-09-06T23:03:56.646Z,15.34
2022-09-06T23:06:25.458Z,15.34
2022-09-06T23:08:53.863Z,15.35
2022-09-06T23:11:21.970Z,15.33
2022-09-06T23:13:55.511Z,15.30
2022-09-06T23:16:24.879Z,15.27
2022-09-06T23:18:54.761Z,15.29
2022-09-06T23:21:25.689Z,15.32
2022-09-06T23:23:56.105Z,15.34
2022-09-06T23:26:28.965Z,15.35
2022-09-06T23:28:57.578Z,15.37
2022-09-06T23:31:28.192Z,15.36
2022-09-06T23:33:58.418Z,15.31
2022-09-06T23:36:27.411Z,15.26
2022-09-06T23:38:56.353Z,15.22
2022-09-06T23:41:24.943Z,15.21
2022-09-06T23:43:53.135Z,15.16
2022-09-06T23:46:22.106Z,15.11
2022-09-06T23:48:50.725Z,15.08
2022-09-06T23:51:19.041Z,15.05
2022-09-06T23:53:47.267Z,15.02
2022-09-06T23:56:16.161Z,14.99
2022-09-06T23:58:44.471Z,14.95
